createdAt,value
2023-05-15T14:25:25.908Z,47.19
2023-05-15T14:26:25.695Z,46.90
2023-05-15T14:27:25.710Z,46.77
2023-05-15T14:28:25.661Z,46.75
2023-05-15T14:29:25.663Z,46.73
2023-05-15T14:30:25.814Z,46.73
2023-05-15T14:31:25.653Z,46.68
2023-05-15T14:32:25.594Z,46.71
2023-05-15T14:33:25.589Z,46.74
2023-05-15T14:34:25.593Z,46.78
2023-05-15T14:35:25.608Z,46.83
2023-05-15T14:36:25.573Z,46.82
2023-05-15T14:37:25.571Z,46.84
2023-05-15T14:38:25.580Z,46.88
2023-05-15T14:39:25.592Z,46.90
2023-05-15T14:40:25.921Z,46.93
2023-05-15T14:41:25.542Z,46.96
2023-05-15T14:42:25.538Z,47.02
2023-05-15T14:43:25.523Z,47.06
2023-05-15T14:44:25.524Z,47.03
2023-05-15T14:45:25.739Z,47.05
2023-05-15T14:46:25.575Z,47.07
2023-05-15T14:47:25.535Z,47.11
2023-05-15T14:48:25.508Z,47.07
2023-05-15T14:49:25.514Z,47.07
2023-05-15T14:50:25.745Z,47.13
2023-05-15T14:51:25.504Z,47.13
2023-05-15T14:52:25.493Z,47.14
2023-05-15T14:53:25.476Z,47.14
2023-05-15T14:54:25.475Z,47.17
2023-05-15T14:55:25.476Z,47.14
2023-05-15T14:56:25.433Z,47.12
2023-05-15T14:57:25.422Z,47.13
2023-05-15T14:58:25.431Z,47.05
2023-05-15T14:59:25.432Z,47.11
2023-05-15T15:00:25.736Z,47.10
2023-05-15T15:01:25.469Z,47.07
2023-05-15T15:02:25.485Z,47.07
2023-05-15T15:03:27.878Z,47.07
2023-05-15T15:04:25.398Z,47.02
2023-05-15T15:05:25.377Z,47.00
2023-05-15T15:06:25.394Z,46.97
2023-05-15T15:07:25.355Z,46.97
2023-05-15T15:08:25.398Z,46.91
2023-05-15T15:09:26.368Z,46.88
2023-05-15T15:10:25.576Z,46.86
2023-05-15T15:11:25.355Z,46.62
2023-05-15T15:12:25.328Z,46.69
2023-05-15T15:13:25.324Z,46.71
2023-05-15T15:14:25.317Z,46.80
2023-05-15T15:15:25.283Z,46.86
2023-05-15T15:16:25.338Z,46.93
2023-05-15T15:17:25.310Z,47.01
2023-05-15T15:18:25.306Z,47.07
2023-05-15T15:19:25.401Z,47.13
2023-05-15T15:20:25.539Z,47.21
2023-05-15T15:21:25.256Z,47.20
2023-05-15T15:22:25.272Z,47.21
2023-05-15T15:23:25.256Z,47.31
2023-05-15T15:24:25.251Z,47.33
2023-05-15T15:25:25.271Z,47.36
2023-05-15T15:26:25.237Z,47.39
2023-05-15T15:27:25.224Z,47.40
2023-05-15T15:28:25.216Z,47.37
2023-05-15T15:29:25.225Z,47.40
2023-05-15T15:30:25.389Z,47.43
2023-05-15T15:31:25.247Z,47.43
2023-05-15T15:32:25.227Z,47.46
2023-05-15T15:33:25.213Z,47.49
2023-05-15T15:34:25.172Z,47.48
2023-05-15T15:35:25.187Z,47.48
2023-05-15T15:36:25.167Z,47.49
2023-05-15T15:37:25.150Z,47.46
2023-05-15T15:38:25.169Z,47.45
2023-05-15T15:39:25.131Z,47.41
2023-05-15T15:40:25.301Z,47.36
2023-05-15T15:41:25.136Z,47.30
2023-05-15T15:42:25.094Z,47.21
2023-05-15T15:43:25.272Z,47.10
2023-05-15T15:44:25.116Z,47.09
2023-05-15T15:45:25.165Z,46.99
2023-05-15T15:46:25.161Z,46.91
2023-05-15T15:47:25.089Z,46.91
2023-05-15T15:48:25.082Z,46.79
2023-05-15T15:49:25.110Z,46.75
2023-05-15T15:50:25.424Z,46.63
2023-05-15T15:51:25.139Z,46.59
2023-05-15T15:52:25.181Z,46.58
2023-05-15T15:53:25.177Z,46.50
2023-05-15T15:54:25.215Z,46.45
2023-05-15T15:55:25.235Z,46.45
2023-05-15T15:56:25.242Z,46.47
2023-05-15T15:57:25.482Z,46.49
2023-05-15T15:58:25.264Z,46.51
2023-05-15T15:59:25.315Z,46.53
2023-05-15T16:00:25.474Z,46.57
2023-05-15T16:01:25.502Z,46.63
2023-05-15T16:02:25.424Z,46.66
2023-05-15T16:03:25.452Z,46.71
2023-05-15T16:04:25.445Z,46.74
2023-05-15T16:05:25.433Z,46.73
2023-05-15T16:06:25.499Z,46.76
2023-05-15T16:07:25.504Z,46.79
2023-05-15T16:08:25.539Z,46.82
2023-05-15T16:09:25.571Z,46.86
2023-05-15T16:10:25.578Z,46.89
2023-05-15T16:11:25.587Z,46.89
2023-05-15T16:12:25.636Z,46.89
2023-05-15T16:13:25.682Z,46.89
2023-05-15T16:14:25.701Z,47.00
2023-05-15T16:15:25.721Z,47.06
2023-05-15T16:16:25.955Z,47.09
2023-05-15T16:17:26.032Z,47.13
2023-05-15T16:18:25.854Z,47.16
2023-05-15T16:19:25.887Z,47.19
2023-05-15T16:20:26.283Z,47.22
2023-05-15T16:21:25.937Z,47.22
2023-05-15T16:22:25.977Z,47.21
2023-05-15T16:23:26.008Z,47.22
2023-05-15T16:24:26.047Z,47.21
2023-05-15T16:25:26.059Z,47.20
2023-05-15T16:26:26.111Z,47.21
2023-05-15T16:27:26.105Z,47.18
2023-05-15T16:28:26.157Z,47.17
2023-05-15T16:29:26.200Z,47.14
2023-05-15T16:30:33.676Z,47.11
2023-05-15T16:31:27.235Z,47.07
2023-05-15T16:32:26.225Z,47.01
2023-05-15T16:33:26.184Z,46.96
2023-05-15T16:34:26.194Z,46.90
2023-05-15T16:35:26.187Z,46.88
2023-05-15T16:36:26.164Z,46.76
2023-05-15T16:37:26.151Z,46.77
2023-05-15T16:38:26.157Z,46.78
2023-05-15T16:39:26.116Z,46.84
2023-05-15T16:40:26.405Z,46.86
2023-05-15T16:41:26.122Z,47.02
2023-05-15T16:42:26.124Z,47.03
2023-05-15T16:43:26.101Z,47.10
2023-05-15T16:44:26.090Z,47.19
2023-05-15T16:45:27.922Z,47.18
2023-05-15T16:46:26.352Z,47.17
2023-05-15T16:47:26.186Z,47.13
2023-05-15T16:48:26.205Z,47.22
2023-05-15T16:49:26.244Z,47.32
2023-05-15T16:50:26.526Z,47.37
2023-05-15T16:51:26.319Z,47.41
2023-05-15T16:52:26.348Z,47.46
2023-05-15T16:53:26.438Z,47.50
2023-05-15T16:54:26.392Z,47.58
2023-05-15T16:55:26.460Z,47.65
2023-05-15T16:56:26.462Z,47.74
2023-05-15T16:57:26.545Z,47.77
2023-05-15T16:58:26.506Z,47.87
2023-05-15T16:59:26.581Z,47.93
2023-05-15T17:00:27.081Z,48.04
2023-05-15T17:01:26.667Z,48.06
2023-05-15T17:02:26.810Z,48.13
2023-05-15T17:03:26.783Z,48.19
2023-05-15T17:04:26.735Z,48.19
2023-05-15T17:05:26.771Z,48.17
2023-05-15T17:06:26.809Z,48.12
2023-05-15T17:07:26.840Z,48.08
2023-05-15T17:08:26.860Z,48.06
2023-05-15T17:09:26.896Z,48.02
2023-05-15T17:10:27.205Z,47.98
2023-05-15T17:11:26.972Z,47.92
2023-05-15T17:12:27.004Z,47.85
2023-05-15T17:13:27.825Z,47.82
2023-05-15T17:14:27.089Z,47.75
2023-05-15T17:15:27.334Z,47.58
2023-05-15T17:16:27.149Z,47.49
2023-05-15T17:17:27.237Z,47.56
2023-05-15T17:18:27.217Z,47.55
2023-05-15T17:19:27.250Z,47.52
2023-05-15T17:20:27.262Z,46.83
2023-05-15T17:21:27.277Z,46.50
2023-05-15T17:22:27.292Z,46.36
2023-05-15T17:23:27.348Z,46.45
2023-05-15T17:24:38.529Z,46.18
2023-05-15T17:25:28.488Z,46.52
2023-05-15T17:26:27.388Z,45.98
2023-05-15T17:27:27.366Z,45.67
2023-05-15T17:28:27.342Z,45.51
2023-05-15T17:29:27.366Z,45.25
2023-05-15T17:30:27.425Z,45.04
2023-05-15T17:31:27.359Z,44.91
2023-05-15T17:32:27.458Z,44.68
2023-05-15T17:33:27.342Z,44.64
2023-05-15T17:34:27.323Z,44.54
2023-05-15T17:35:28.356Z,44.34
2023-05-15T17:36:27.492Z,44.23
2023-05-15T17:37:27.542Z,44.11
2023-05-15T17:38:27.562Z,43.98
2023-05-15T17:39:27.628Z,43.79
2023-05-15T17:40:27.643Z,43.71
2023-05-15T17:41:27.725Z,43.57
2023-05-15T17:42:27.737Z,43.47
2023-05-15T17:43:27.830Z,43.32
2023-05-15T17:44:27.852Z,43.23
2023-05-15T17:45:28.082Z,43.08
2023-05-15T17:46:27.979Z,42.96
2023-05-15T17:47:28.063Z,42.87
2023-05-15T17:48:28.076Z,42.72
2023-05-15T17:49:28.123Z,42.64
2023-05-15T17:50:28.199Z,42.51
2023-05-15T17:51:28.200Z,42.45
2023-05-15T17:52:28.269Z,42.36
2023-05-15T17:53:28.357Z,42.28
2023-05-15T17:54:28.376Z,42.16
2023-05-15T17:55:28.540Z,42.07
2023-05-15T17:56:28.472Z,41.96
2023-05-15T17:57:28.551Z,41.82
2023-05-15T17:58:28.613Z,41.83
2023-05-15T17:59:28.725Z,41.75
2023-05-15T18:00:28.749Z,41.61
2023-05-15T18:01:28.824Z,41.45
2023-05-15T18:02:28.886Z,41.42
2023-05-15T18:03:29.004Z,41.42
2023-05-15T18:04:28.950Z,41.43
2023-05-15T18:05:29.289Z,41.44
2023-05-15T18:06:29.115Z,41.37
2023-05-15T18:07:29.156Z,41.39
2023-05-15T18:08:29.219Z,41.32
2023-05-15T18:09:29.250Z,41.37
2023-05-15T18:10:29.358Z,41.34
2023-05-15T18:11:29.384Z,41.37
2023-05-15T18:12:29.436Z,41.33
2023-05-15T18:13:29.479Z,41.30
2023-05-15T18:14:29.560Z,41.28
2023-05-15T18:15:29.588Z,41.32
2023-05-15T18:16:29.717Z,41.21
2023-05-15T18:17:29.681Z,41.24
2023-05-15T18:18:29.755Z,41.19
2023-05-15T18:19:29.813Z,41.15
2023-05-15T18:20:29.886Z,41.02
2023-05-15T18:21:29.929Z,41.02
2023-05-15T18:22:29.996Z,40.96
2023-05-15T18:23:30.081Z,40.94
2023-05-15T18:24:30.125Z,40.95
2023-05-15T18:25:30.157Z,40.91
2023-05-15T18:26:30.236Z,40.97
2023-05-15T18:27:30.294Z,41.01
2023-05-15T18:28:30.290Z,41.03
2023-05-15T18:29:30.308Z,41.08
2023-05-15T18:30:30.397Z,41.16
2023-05-15T18:31:30.388Z,41.16
2023-05-15T18:32:30.444Z,41.23
2023-05-15T18:33:30.452Z,41.30
2023-05-15T18:34:30.450Z,41.33
2023-05-15T18:35:30.498Z,41.38
2023-05-15T18:36:30.502Z,41.47
2023-05-15T18:37:30.514Z,41.51
2023-05-15T18:38:31.434Z,41.58
2023-05-15T18:39:30.462Z,41.63
2023-05-15T18:40:30.525Z,41.68
2023-05-15T18:41:30.704Z,41.74
2023-05-15T18:42:30.531Z,41.76
2023-05-15T18:43:30.525Z,41.80
2023-05-15T18:44:30.526Z,41.84
2023-05-15T18:45:30.555Z,41.86
2023-05-15T18:46:30.556Z,41.93
2023-05-15T18:47:30.523Z,41.97
2023-05-15T18:48:30.536Z,42.00
2023-05-15T18:49:30.544Z,42.01
2023-05-15T18:50:30.545Z,42.04
2023-05-15T18:51:30.531Z,42.05
2023-05-15T18:52:30.513Z,42.09
2023-05-15T18:53:30.520Z,42.10
2023-05-15T18:54:30.502Z,42.09
2023-05-15T18:55:30.518Z,42.09
2023-05-15T18:56:30.494Z,42.16
2023-05-15T18:57:30.507Z,42.15
2023-05-15T18:58:30.512Z,42.17
2023-05-15T18:59:30.495Z,42.19
2023-05-15T19:01:30.523Z,42.20
2023-05-15T19:02:30.545Z,42.21
2023-05-15T19:03:30.528Z,42.20
2023-05-15T19:04:30.500Z,42.24
2023-05-15T19:05:30.439Z,42.25
2023-05-15T19:06:30.462Z,42.25
2023-05-15T19:07:30.437Z,42.26
2023-05-15T19:08:30.436Z,42.26
2023-05-15T19:09:30.441Z,42.27
2023-05-15T19:10:30.439Z,42.31
2023-05-15T19:11:30.398Z,42.29
2023-05-15T19:12:30.393Z,42.36
2023-05-15T19:13:30.403Z,42.38
2023-05-15T19:14:30.469Z,42.41
2023-05-15T19:15:30.381Z,42.43
2023-05-15T19:16:30.388Z,42.43
2023-05-15T19:18:43.732Z,42.52
2023-05-15T19:19:43.618Z,42.53
2023-05-15T19:20:43.601Z,42.56
2023-05-15T19:21:43.572Z,42.58
2023-05-15T19:22:43.586Z,42.59
2023-05-15T19:23:43.573Z,42.62
2023-05-15T19:24:43.561Z,42.63
2023-05-15T19:25:43.566Z,42.64
2023-05-15T19:26:43.527Z,42.69
2023-05-15T19:27:43.529Z,42.69
2023-05-15T19:28:43.525Z,42.72
2023-05-15T19:29:43.541Z,42.72
2023-05-15T19:30:43.519Z,42.72
2023-05-15T19:31:43.517Z,42.73
2023-05-15T19:32:43.614Z,42.75
2023-05-15T19:33:43.493Z,42.78
2023-05-15T19:34:43.486Z,42.81
2023-05-15T19:35:43.473Z,42.85
2023-05-15T19:36:43.458Z,42.87
2023-05-15T19:37:43.490Z,42.89
2023-05-15T19:38:43.443Z,42.91
2023-05-15T19:39:43.437Z,42.93
2023-05-15T19:40:43.473Z,42.94
2023-05-15T19:41:43.455Z,42.97
2023-05-15T19:42:43.446Z,42.98
2023-05-15T19:43:43.421Z,42.95
2023-05-15T19:44:43.435Z,42.99
2023-05-15T19:45:43.483Z,42.98
2023-05-15T19:46:43.427Z,43.01
2023-05-15T19:47:43.457Z,43.00
2023-05-15T19:48:43.412Z,43.02
2023-05-15T19:49:43.395Z,43.04
2023-05-15T19:50:43.361Z,43.02
2023-05-15T19:51:43.375Z,43.02
2023-05-15T19:52:45.199Z,43.01
2023-05-15T19:53:43.339Z,43.00
2023-05-15T19:54:43.353Z,43.01
2023-05-15T19:55:43.358Z,43.03
2023-05-15T19:56:43.336Z,43.00
2023-05-15T19:57:43.321Z,42.99
2023-05-15T19:58:43.315Z,43.00
2023-05-15T19:59:43.308Z,42.98
2023-05-15T20:00:43.314Z,42.97
2023-05-15T20:01:43.371Z,43.00
2023-05-15T20:02:43.319Z,43.02
2023-05-15T20:03:43.879Z,42.98
2023-05-15T20:04:43.269Z,42.97
2023-05-15T20:05:43.304Z,43.00
2023-05-15T20:06:43.252Z,42.98
2023-05-15T20:07:43.289Z,42.98
2023-05-15T20:08:43.339Z,42.98
2023-05-15T20:09:43.261Z,42.96
2023-05-15T20:10:43.234Z,42.99
2023-05-15T20:11:43.237Z,42.95
2023-05-15T20:12:43.209Z,42.94
2023-05-15T20:13:43.241Z,42.91
2023-05-15T20:14:43.193Z,42.89
2023-05-15T20:15:43.233Z,42.89
2023-05-15T20:16:43.312Z,42.89
2023-05-15T20:17:43.276Z,42.87
2023-05-15T20:18:43.310Z,42.84
2023-05-15T20:19:43.244Z,42.85
2023-05-15T20:20:43.306Z,42.81
2023-05-15T20:21:43.290Z,42.83
2023-05-15T20:22:43.297Z,42.83
2023-05-15T20:23:43.323Z,42.81
2023-05-15T20:24:43.321Z,42.79
2023-05-15T20:25:43.353Z,42.73
2023-05-15T20:26:43.363Z,42.70
2023-05-15T20:27:43.377Z,42.69
2023-05-15T20:28:45.003Z,42.65
2023-05-15T20:29:43.391Z,42.66
2023-05-15T20:30:43.409Z,42.66
2023-05-15T20:31:43.449Z,42.63
2023-05-15T20:32:43.532Z,42.65
2023-05-15T20:33:43.501Z,42.65
2023-05-15T20:34:43.457Z,42.64
2023-05-15T20:35:43.573Z,42.65
2023-05-15T20:36:43.513Z,42.59
2023-05-15T20:37:43.526Z,42.59
2023-05-15T20:38:43.538Z,42.57
2023-05-15T20:39:43.598Z,42.54
2023-05-15T20:40:43.610Z,42.59
2023-05-15T20:41:43.618Z,42.58
2023-05-15T20:42:43.639Z,42.55
2023-05-15T20:43:43.665Z,42.60
2023-05-15T20:44:43.704Z,42.58
2023-05-15T20:45:43.706Z,42.60
2023-05-15T20:46:43.732Z,42.60
2023-05-15T20:47:43.794Z,42.62
2023-05-15T20:48:43.792Z,42.63
2023-05-15T20:49:43.789Z,42.66
2023-05-15T20:50:43.863Z,42.66
2023-05-15T20:51:43.871Z,42.65
2023-05-15T20:52:43.930Z,42.63
2023-05-15T20:53:43.941Z,42.59
2023-05-15T20:54:43.962Z,42.62
2023-05-15T20:55:43.997Z,42.55
2023-05-15T20:56:44.031Z,42.52
2023-05-15T20:57:44.054Z,42.53
2023-05-15T20:58:44.068Z,42.53
2023-05-15T20:59:44.112Z,42.54
2023-05-15T21:00:44.165Z,42.54
2023-05-15T21:01:44.257Z,42.54
2023-05-15T21:02:44.226Z,42.56
2023-05-15T21:03:44.278Z,42.57
2023-05-15T21:04:44.268Z,42.58
2023-05-15T21:05:44.296Z,42.61
2023-05-15T21:06:44.333Z,42.67
2023-05-15T21:07:44.369Z,42.66
2023-05-15T21:08:44.390Z,42.69
2023-05-15T21:09:44.432Z,42.72
2023-05-15T21:10:44.472Z,42.77
2023-05-15T21:11:44.487Z,42.82
2023-05-15T21:12:44.535Z,42.81
2023-05-15T21:13:44.565Z,42.85
2023-05-15T21:14:44.593Z,42.83
2023-05-15T21:15:44.670Z,42.86
2023-05-15T21:16:44.757Z,42.90
2023-05-15T21:17:44.784Z,42.89
2023-05-15T21:18:44.798Z,42.93
2023-05-15T21:19:44.817Z,42.94
2023-05-15T21:20:44.870Z,42.97
2023-05-15T21:21:44.907Z,42.99
2023-05-15T21:22:44.913Z,42.98
2023-05-15T21:23:44.987Z,42.99
2023-05-15T21:24:45.046Z,43.01
2023-05-15T21:25:45.084Z,42.99
2023-05-15T21:26:45.098Z,43.03
2023-05-15T21:27:45.175Z,43.03
2023-05-15T21:28:45.210Z,43.04
2023-05-15T21:29:45.247Z,43.04
2023-05-15T21:30:45.286Z,43.02
2023-05-15T21:31:45.324Z,43.01
2023-05-15T21:32:45.416Z,43.00
2023-05-15T21:33:45.410Z,43.01
2023-05-15T21:34:45.470Z,43.00
2023-05-15T21:35:45.510Z,43.02
2023-05-15T21:36:45.591Z,43.03
2023-05-15T21:37:45.576Z,43.02
2023-05-15T21:38:45.663Z,43.01
2023-05-15T21:39:45.661Z,43.03
2023-05-15T21:40:45.724Z,43.02
2023-05-15T21:41:45.740Z,43.06
2023-05-15T21:42:45.818Z,43.07
2023-05-15T21:43:45.814Z,43.08
2023-05-15T21:44:45.912Z,43.13
2023-05-15T21:45:45.951Z,43.16
2023-05-15T21:46:46.110Z,43.17
2023-05-15T21:47:46.102Z,43.19
2023-05-15T21:48:46.097Z,43.26
2023-05-15T21:49:46.156Z,43.30
2023-05-15T21:50:46.203Z,43.33
2023-05-15T21:51:46.235Z,43.36
2023-05-15T21:52:46.299Z,43.42
2023-05-15T21:53:46.312Z,43.44
2023-05-15T21:54:46.364Z,43.48
2023-05-15T21:55:46.443Z,43.52
2023-05-15T21:56:46.491Z,43.48
2023-05-15T21:57:46.505Z,43.44
2023-05-15T21:58:46.578Z,43.37
2023-05-15T21:59:46.632Z,43.34
2023-05-15T22:00:46.688Z,43.30
2023-05-15T22:01:46.808Z,43.33
2023-05-15T22:02:46.930Z,43.32
2023-05-15T22:03:46.932Z,43.31
2023-05-15T22:04:46.880Z,43.30
2023-05-15T22:05:46.898Z,43.28
2023-05-15T22:06:46.984Z,43.28
2023-05-15T22:07:47.018Z,43.25
2023-05-15T22:08:47.038Z,43.24
2023-05-15T22:09:47.127Z,43.19
2023-05-15T22:10:48.887Z,43.18
2023-05-15T22:11:47.212Z,43.19
2023-05-15T22:12:47.302Z,43.15
2023-05-15T22:13:47.332Z,43.13
2023-05-15T22:14:58.436Z,43.12
2023-05-15T22:15:48.363Z,43.13
2023-05-15T22:16:47.413Z,43.10
2023-05-15T22:17:47.410Z,43.08
2023-05-15T22:18:47.368Z,43.06
2023-05-15T22:19:47.484Z,43.01
2023-05-15T22:20:47.345Z,42.99
2023-05-15T22:21:47.326Z,42.96
2023-05-15T22:22:47.317Z,42.97
2023-05-15T22:23:47.344Z,42.95
2023-05-15T22:24:47.325Z,42.95
2023-05-15T22:25:47.336Z,42.96
2023-05-15T22:26:47.382Z,42.94
2023-05-15T22:27:47.443Z,42.94
2023-05-15T22:28:47.521Z,42.94
2023-05-15T22:29:47.554Z,42.93
2023-05-15T22:30:47.597Z,42.93
2023-05-15T22:31:47.684Z,42.94
2023-05-15T22:32:47.788Z,42.94
2023-05-15T22:33:47.747Z,42.95
2023-05-15T22:34:47.850Z,42.90
2023-05-15T22:35:47.882Z,42.90
2023-05-15T22:36:47.942Z,42.88
2023-05-15T22:37:47.968Z,42.87
2023-05-15T22:38:48.035Z,42.94
2023-05-15T22:39:48.107Z,42.87
2023-05-15T22:40:48.169Z,42.92
2023-05-15T22:41:48.208Z,42.92
2023-05-15T22:42:48.221Z,42.92
2023-05-15T22:43:48.272Z,42.94
2023-05-15T22:44:48.356Z,42.91
2023-05-15T22:45:48.446Z,42.94
2023-05-15T22:46:48.474Z,42.97
2023-05-15T22:47:48.580Z,42.97
2023-05-15T22:48:48.528Z,43.04
2023-05-15T22:49:48.607Z,43.08
2023-05-15T22:50:48.678Z,43.12
2023-05-15T22:51:48.707Z,43.18
2023-05-15T22:52:48.808Z,43.20
2023-05-15T22:53:48.828Z,43.21
2023-05-15T22:54:48.936Z,43.27
2023-05-15T22:55:48.947Z,43.30
2023-05-15T22:56:49.012Z,43.32
2023-05-15T22:57:49.070Z,43.35
2023-05-15T22:58:49.116Z,43.38
2023-05-15T22:59:49.193Z,43.36
2023-05-15T23:00:49.284Z,43.35
2023-05-15T23:01:49.397Z,43.40
2023-05-15T23:02:49.356Z,43.40
2023-05-15T23:03:49.469Z,43.39
2023-05-15T23:04:49.479Z,43.40
2023-05-15T23:05:49.540Z,43.46
2023-05-15T23:06:49.595Z,43.43
2023-05-15T23:07:49.627Z,43.46
2023-05-15T23:08:49.692Z,43.48
2023-05-15T23:09:49.770Z,43.52
2023-05-15T23:10:49.811Z,43.52
2023-05-15T23:11:49.894Z,43.52
2023-05-15T23:12:49.908Z,43.55
2023-05-15T23:13:50.022Z,43.58
2023-05-15T23:14:50.095Z,43.63
2023-05-15T23:15:50.147Z,43.63
2023-05-15T23:16:50.225Z,43.65
2023-05-15T23:17:50.297Z,43.72
2023-05-15T23:18:50.361Z,43.74
2023-05-15T23:19:50.374Z,43.76
2023-05-15T23:20:50.433Z,43.83
2023-05-15T23:21:50.449Z,43.85
2023-05-15T23:22:50.513Z,43.88
2023-05-15T23:23:50.612Z,43.96
2023-05-15T23:24:50.686Z,44.00
2023-05-15T23:25:50.743Z,44.05
2023-05-15T23:26:50.795Z,44.08
2023-05-15T23:27:50.915Z,44.09
2023-05-15T23:28:50.917Z,44.14
2023-05-15T23:29:50.989Z,44.14
2023-05-15T23:30:51.092Z,44.19
2023-05-15T23:31:51.206Z,44.17
2023-05-15T23:32:51.200Z,44.21
2023-05-15T23:33:51.252Z,44.24
2023-05-15T23:34:51.302Z,44.27
2023-05-15T23:35:51.341Z,44.33
2023-05-15T23:36:51.389Z,44.33
2023-05-15T23:37:51.457Z,44.34
2023-05-15T23:38:51.508Z,44.38
2023-05-15T23:39:51.573Z,44.38
2023-05-15T23:40:51.653Z,44.40
2023-05-15T23:41:51.720Z,44.43
2023-05-15T23:42:51.757Z,44.44
2023-05-15T23:43:51.821Z,44.48
2023-05-15T23:44:51.934Z,44.49
2023-05-15T23:45:51.941Z,44.45
2023-05-15T23:46:52.138Z,44.42
2023-05-15T23:47:52.093Z,44.44
2023-05-15T23:48:52.120Z,44.43
2023-05-15T23:49:52.207Z,44.44
2023-05-15T23:50:52.272Z,44.46
2023-05-15T23:51:52.314Z,44.46
2023-05-15T23:52:52.360Z,44.45
2023-05-15T23:53:52.448Z,44.44
2023-05-15T23:54:52.495Z,44.42
2023-05-15T23:55:52.640Z,44.43
2023-05-15T23:56:52.601Z,44.41
2023-05-15T23:57:52.676Z,44.36
2023-05-15T23:58:52.728Z,44.32
2023-05-15T23:59:52.804Z,44.29
